Foshan, China
Current Conditions -  °F | °C
As of 11:30 AM on Sunday 25 Jan 2015 (Local Time) from ZGGG Reporting Station
Haze Haze  
Wind Chill: 66°   Ceiling: 2000
Heat Index: 66°   Visibility: 2.5mi
Dew Point: 61°   Wind: 2mph
Humidity: 83%   Direction: NA
Pressure: 30.12"   Gusts: NA
Location:  23.03°N, 113.12°E
Report Text: ZGGG 250330Z VRB01MPS 4000 BR BKN020 19/16 Q1020 NOSIG
Loading
Personal Weather Stations






























Interactive Weather Map New forecast layout! Learn more

10-Day Weather Forecast

Advertisements
Track Severe Weather on mobile